createdAt,value
2022-12-01T00:01:22.298Z,37.45
2022-12-01T00:03:49.735Z,32.47
2022-12-01T00:06:19.464Z,32.55
2022-12-01T00:11:35.938Z,22.27
2022-12-01T00:14:03.878Z,25.00
2022-12-01T00:16:31.269Z,22.08
2022-12-01T00:18:58.854Z,26.00
2022-12-01T00:21:27.544Z,28.55
2022-12-01T00:23:57.239Z,26.85
2022-12-01T00:26:27.034Z,19.00
2022-12-01T00:31:22.754Z,20.60
2022-12-01T00:33:50.246Z,24.95
2022-12-01T00:36:17.227Z,40.90
2022-12-01T00:38:44.240Z,46.55
2022-12-01T00:41:11.386Z,30.95
2022-12-01T00:43:38.517Z,30.58
2022-12-01T00:46:05.768Z,30.77
2022-12-01T00:48:32.775Z,30.52
2022-12-01T00:50:59.798Z,39.25
2022-12-01T00:53:26.918Z,29.30
2022-12-01T00:55:56.711Z,6.00
2022-12-01T01:00:59.222Z,22.45
2022-12-01T01:03:27.184Z,29.38
2022-12-01T01:05:54.462Z,33.45
2022-12-01T01:08:21.667Z,45.33
2022-12-01T01:10:49.445Z,37.42
2022-12-01T01:13:17.096Z,38.22
2022-12-01T01:15:44.104Z,44.40
2022-12-01T01:18:12.275Z,39.47
2022-12-01T01:20:39.317Z,24.35
2022-12-01T01:23:06.641Z,23.38
2022-12-01T01:25:34.487Z,11.20
2022-12-01T01:28:04.109Z,8.65
2022-12-01T01:30:31.159Z,18.35
2022-12-01T01:32:59.307Z,14.70
2022-12-01T01:35:26.934Z,21.20
2022-12-01T01:37:53.934Z,18.30
2022-12-01T01:40:21.008Z,25.08
2022-12-01T01:42:48.038Z,20.65
2022-12-01T01:45:30.039Z,12.07
2022-12-01T01:48:00.437Z,20.88
2022-12-01T01:50:29.160Z,18.17
2022-12-01T01:53:02.983Z,12.43
2022-12-01T01:55:33.821Z,24.52
2022-12-01T01:58:02.673Z,17.65
2022-12-01T02:00:29.736Z,36.63
2022-12-01T02:03:00.127Z,34.22
2022-12-01T02:05:32.996Z,29.58
2022-12-01T02:08:02.759Z,30.02
2022-12-01T02:13:33.917Z,15.23
2022-12-01T02:16:11.471Z,15.23
2022-12-01T02:18:38.586Z,27.45
2022-12-01T02:21:35.524Z,38.00
2022-12-01T02:24:08.652Z,33.65
2022-12-01T02:27:06.841Z,31.05
2022-12-01T02:29:33.876Z,10.40
2022-12-01T02:32:15.992Z,13.35
2022-12-01T02:35:21.276Z,6.72
2022-12-01T02:38:11.541Z,32.63
2022-12-01T02:40:44.583Z,18.67
2022-12-01T02:43:18.940Z,24.52
2022-12-01T02:45:53.180Z,16.95
2022-12-01T02:48:41.159Z,34.15
2022-12-01T02:51:14.803Z,31.15
2022-12-01T02:53:42.185Z,28.58
2022-12-01T02:56:12.742Z,28.65
2022-12-01T02:58:39.628Z,36.05
2022-12-01T03:01:50.975Z,33.50
2022-12-01T03:04:24.415Z,3.20
2022-12-01T03:07:19.363Z,21.70
2022-12-01T03:10:01.380Z,32.72
2022-12-01T03:12:45.750Z,32.80
2022-12-01T03:15:33.945Z,44.67
2022-12-01T03:18:19.282Z,32.10
2022-12-01T03:20:54.411Z,29.35
2022-12-01T03:23:25.457Z,28.95
2022-12-01T03:25:56.580Z,31.20
2022-12-01T03:28:33.658Z,35.13
2022-12-01T03:31:07.235Z,35.42
2022-12-01T03:33:43.730Z,36.58
2022-12-01T03:36:16.633Z,29.67
2022-12-01T03:38:48.455Z,27.33
2022-12-01T03:41:25.673Z,29.35
2022-12-01T03:43:59.566Z,25.17
2022-12-01T03:46:45.575Z,26.85
2022-12-01T03:49:15.112Z,30.75
2022-12-01T03:51:56.234Z,32.30
2022-12-01T03:54:37.254Z,22.67
2022-12-01T03:57:09.874Z,11.82
2022-12-01T03:59:39.340Z,30.70
2022-12-01T04:02:07.829Z,35.75
2022-12-01T04:04:34.845Z,37.50
2022-12-01T04:07:01.867Z,28.30
2022-12-01T04:09:29.005Z,32.28
2022-12-01T04:12:14.783Z,15.18
2022-12-01T04:14:41.929Z,23.73
2022-12-01T04:17:09.044Z,13.10
2022-12-01T04:19:36.014Z,29.25
2022-12-01T04:22:03.923Z,36.47
2022-12-01T04:24:30.952Z,17.38
2022-12-01T04:26:57.916Z,22.67
2022-12-01T04:29:24.952Z,26.38
2022-12-01T04:31:51.942Z,37.47
2022-12-01T04:34:19.004Z,34.70
2022-12-01T04:36:46.066Z,24.60
2022-12-01T04:39:13.110Z,28.50
2022-12-01T04:41:40.080Z,32.20
2022-12-01T04:44:07.481Z,9.43
2022-12-01T04:46:34.547Z,13.82
2022-12-01T04:49:01.656Z,31.73
2022-12-01T04:51:28.701Z,33.45
2022-12-01T04:53:56.998Z,30.50
2022-12-01T04:56:24.156Z,23.52
2022-12-01T04:58:51.160Z,27.00
2022-12-01T05:01:19.137Z,30.33
2022-12-01T05:03:51.139Z,35.05
2022-12-01T05:06:21.156Z,16.30
2022-12-01T05:08:49.000Z,26.17
2022-12-01T05:11:16.942Z,18.50
2022-12-01T05:13:46.219Z,33.78
2022-12-01T05:16:14.350Z,30.48
2022-12-01T05:18:42.126Z,23.48
2022-12-01T05:21:11.298Z,25.33
2022-12-01T05:23:39.576Z,32.42
2022-12-01T05:26:09.716Z,39.70
2022-12-01T05:28:37.210Z,21.98
2022-12-01T05:31:07.469Z,27.45
2022-12-01T05:33:34.774Z,32.35
2022-12-01T05:36:02.454Z,35.97
2022-12-01T05:38:29.815Z,29.05
2022-12-01T05:40:57.177Z,32.47
2022-12-01T05:43:28.924Z,32.10
2022-12-01T05:45:57.725Z,30.20
2022-12-01T05:48:25.903Z,39.78
2022-12-01T05:50:54.121Z,29.27
2022-12-01T05:53:21.709Z,29.00
2022-12-01T05:55:54.406Z,36.80
2022-12-01T05:58:22.754Z,40.55
2022-12-01T06:00:49.812Z,30.35
2022-12-01T06:03:17.410Z,38.03
2022-12-01T06:05:45.628Z,32.75
2022-12-01T06:08:16.305Z,23.92
2022-12-01T06:10:45.444Z,25.35
2022-12-01T06:13:13.251Z,36.20
2022-12-01T06:15:40.553Z,39.65
2022-12-01T06:18:07.823Z,35.72
2022-12-01T06:20:34.905Z,33.70
2022-12-01T06:23:01.967Z,27.55
2022-12-01T06:25:29.283Z,24.02
2022-12-01T06:27:59.910Z,28.70
2022-12-01T06:30:27.829Z,30.52
2022-12-01T06:32:57.431Z,38.75
2022-12-01T06:35:25.390Z,37.90
2022-12-01T06:37:54.526Z,36.03
2022-12-01T06:40:21.538Z,37.63
2022-12-01T06:42:48.619Z,33.90
2022-12-01T06:45:15.884Z,39.17
2022-12-01T06:47:50.583Z,39.17
2022-12-01T06:50:17.838Z,31.98
2022-12-01T06:52:45.165Z,35.88
2022-12-01T06:55:12.477Z,39.50
2022-12-01T06:57:39.857Z,37.10
2022-12-01T07:00:08.919Z,37.25
2022-12-01T07:02:36.649Z,48.05
2022-12-01T07:05:03.972Z,38.78
2022-12-01T07:07:34.610Z,40.08
2022-12-01T07:10:02.233Z,41.95
2022-12-01T07:12:31.978Z,38.92
2022-12-01T07:14:59.321Z,45.97
2022-12-01T07:17:26.500Z,31.52
2022-12-01T07:19:53.694Z,48.13
2022-12-01T07:22:20.707Z,44.60
2022-12-01T07:24:47.838Z,34.22
2022-12-01T07:27:15.260Z,37.10
2022-12-01T07:29:42.504Z,47.97
2022-12-01T07:32:09.513Z,43.00
2022-12-01T07:34:36.603Z,35.35
2022-12-01T07:37:03.739Z,34.20
2022-12-01T07:39:31.075Z,39.33
2022-12-01T07:41:58.088Z,34.92
2022-12-01T07:44:25.092Z,37.72
2022-12-01T07:46:52.103Z,36.55
2022-12-01T07:49:19.157Z,52.17
2022-12-01T07:51:46.286Z,41.40
2022-12-01T07:54:17.733Z,51.95
2022-12-01T07:56:44.868Z,47.63
2022-12-01T07:59:13.724Z,48.20
2022-12-01T08:01:44.526Z,57.37
2022-12-01T08:04:12.419Z,49.03
2022-12-01T08:06:44.301Z,51.70
2022-12-01T08:09:15.451Z,52.33
2022-12-01T08:11:42.745Z,47.17
2022-12-01T08:14:09.962Z,53.10
2022-12-01T08:16:37.362Z,54.25
2022-12-01T08:19:04.905Z,45.40
2022-12-01T08:21:35.997Z,34.67
2022-12-01T08:24:05.414Z,37.90
2022-12-01T08:26:32.675Z,47.90
2022-12-01T08:29:01.641Z,32.63
2022-12-01T08:31:32.697Z,39.95
2022-12-01T08:34:09.991Z,48.67
2022-12-01T08:36:38.804Z,40.90
2022-12-01T08:39:08.147Z,36.55
2022-12-01T08:41:35.201Z,47.58
2022-12-01T08:44:02.345Z,44.40
2022-12-01T08:46:34.592Z,37.63
2022-12-01T08:49:04.838Z,33.53
2022-12-01T08:51:32.525Z,37.17
2022-12-01T08:54:01.422Z,40.05
2022-12-01T08:56:31.327Z,34.22
2022-12-01T08:58:59.680Z,44.15
2022-12-01T09:01:56.468Z,37.58
2022-12-01T09:04:27.378Z,36.95
2022-12-01T09:06:57.804Z,38.25
2022-12-01T09:09:28.677Z,50.63
2022-12-01T09:11:56.924Z,50.72
2022-12-01T09:14:24.621Z,50.95
2022-12-01T09:16:53.762Z,38.45
2022-12-01T09:19:25.090Z,41.33
2022-12-01T09:21:53.026Z,39.30
2022-12-01T09:24:20.645Z,42.45
2022-12-01T09:26:50.128Z,43.63
2022-12-01T09:29:28.066Z,37.00
2022-12-01T09:32:11.838Z,39.60
2022-12-01T09:34:43.046Z,43.95
2022-12-01T09:37:10.463Z,43.45
2022-12-01T09:39:37.988Z,45.85
2022-12-01T09:42:13.576Z,46.90
2022-12-01T09:44:41.354Z,38.92
2022-12-01T09:47:19.617Z,41.13
2022-12-01T09:49:51.329Z,36.47
2022-12-01T09:52:20.005Z,36.00
2022-12-01T09:54:47.743Z,48.78
2022-12-01T09:57:29.706Z,46.40
2022-12-01T09:59:58.712Z,41.28
2022-12-01T10:02:35.029Z,39.22
2022-12-01T10:05:06.698Z,40.80
2022-12-01T10:07:39.783Z,40.83
2022-12-01T10:10:49.507Z,39.05
2022-12-01T10:13:22.202Z,38.95
2022-12-01T10:16:13.790Z,35.33
2022-12-01T10:18:59.774Z,33.03
2022-12-01T10:21:42.177Z,39.70
2022-12-01T10:24:37.149Z,53.63
2022-12-01T10:27:16.721Z,38.50
2022-12-01T10:30:09.159Z,36.43
2022-12-01T10:32:46.372Z,48.30
2022-12-01T10:35:18.541Z,51.28
2022-12-01T10:37:57.725Z,56.50
2022-12-01T10:40:27.250Z,46.63
2022-12-01T10:42:55.600Z,52.15
2022-12-01T10:45:29.037Z,40.85
2022-12-01T10:48:08.223Z,43.58
2022-12-01T10:50:36.384Z,43.28
2022-12-01T10:53:05.099Z,44.13
2022-12-01T10:55:46.360Z,46.10
2022-12-01T10:58:17.339Z,51.13
2022-12-01T11:00:59.549Z,59.28
2022-12-01T11:03:31.768Z,70.70
2022-12-01T11:06:01.441Z,50.83
2022-12-01T11:08:46.161Z,59.42
2022-12-01T11:11:32.712Z,50.28
2022-12-01T11:14:23.966Z,55.15
2022-12-01T11:17:01.195Z,51.25
2022-12-01T11:19:36.251Z,60.27
2022-12-01T11:22:24.394Z,61.75
2022-12-01T11:24:58.053Z,70.45
2022-12-01T11:27:40.087Z,66.43
2022-12-01T11:30:25.362Z,61.75
2022-12-01T11:33:02.797Z,78.75
2022-12-01T11:35:46.267Z,60.42
2022-12-01T11:38:38.441Z,57.60
2022-12-01T11:41:54.328Z,63.97
2022-12-01T11:47:24.434Z,76.03
2022-12-01T11:49:57.672Z,62.67
2022-12-01T11:52:30.188Z,60.35
2022-12-01T11:55:12.727Z,71.57
2022-12-01T11:57:46.025Z,58.40
2022-12-01T12:00:20.673Z,75.28
2022-12-01T12:02:56.854Z,57.13
2022-12-01T12:05:34.925Z,76.00
2022-12-01T12:08:05.821Z,64.63
2022-12-01T12:10:49.287Z,52.75
2022-12-01T12:13:28.057Z,54.13
2022-12-01T12:16:20.178Z,44.45
2022-12-01T12:19:12.285Z,50.65
2022-12-01T12:22:22.662Z,67.78
2022-12-01T12:25:11.830Z,54.83
2022-12-01T12:28:03.770Z,50.00
2022-12-01T12:30:37.022Z,45.42
2022-12-01T12:33:22.992Z,65.05
2022-12-01T12:36:11.691Z,52.47
2022-12-01T12:38:47.626Z,52.60
2022-12-01T12:41:23.671Z,57.33
2022-12-01T12:44:03.867Z,49.55
2022-12-01T12:47:03.024Z,71.80
2022-12-01T12:49:46.071Z,57.50
2022-12-01T12:52:18.893Z,54.50
2022-12-01T12:54:52.583Z,47.97
2022-12-01T12:57:31.217Z,55.67
2022-12-01T13:00:22.201Z,60.05
2022-12-01T13:02:58.850Z,72.90
2022-12-01T13:05:41.983Z,59.70
2022-12-01T13:08:18.060Z,71.65
2022-12-01T13:10:58.246Z,80.22
2022-12-01T13:13:53.339Z,72.65
2022-12-01T13:16:31.532Z,76.53
2022-12-01T13:19:13.533Z,89.93
2022-12-01T13:21:45.000Z,73.25
2022-12-01T13:24:23.556Z,100.50
2022-12-01T13:27:01.013Z,69.37
2022-12-01T13:29:42.319Z,96.00
2022-12-01T13:32:25.673Z,76.68
2022-12-01T13:34:54.301Z,70.80
2022-12-01T13:37:49.689Z,81.23
2022-12-01T13:40:22.974Z,91.32
2022-12-01T13:43:10.679Z,102.57
2022-12-01T13:45:40.964Z,72.97
2022-12-01T13:51:02.063Z,59.25
2022-12-01T13:53:37.471Z,89.38
2022-12-01T13:56:24.391Z,104.20
2022-12-01T13:58:54.016Z,121.13
2022-12-01T14:01:21.362Z,82.63
2022-12-01T14:04:18.215Z,100.43
2022-12-01T14:06:49.699Z,102.53
2022-12-01T14:09:35.872Z,102.35
2022-12-01T14:12:06.747Z,99.63
2022-12-01T14:14:40.273Z,102.68
2022-12-01T14:17:23.375Z,94.43
2022-12-01T14:19:52.418Z,97.90
2022-12-01T14:22:39.296Z,101.18
2022-12-01T14:25:20.646Z,93.57
2022-12-01T14:27:54.552Z,66.90
2022-12-01T14:30:45.173Z,64.70
2022-12-01T14:33:43.368Z,88.43
2022-12-01T14:36:30.275Z,70.30
2022-12-01T14:38:59.748Z,67.00
2022-12-01T14:42:01.165Z,78.18
2022-12-01T14:44:54.529Z,92.30
2022-12-01T14:47:27.655Z,84.50
2022-12-01T14:50:03.325Z,62.08
2022-12-01T14:52:38.026Z,81.70
2022-12-01T14:55:14.139Z,79.75
2022-12-01T14:57:46.484Z,62.80
2022-12-01T15:00:14.245Z,100.15
2022-12-01T15:03:05.694Z,89.90
2022-12-01T15:05:39.397Z,56.55
2022-12-01T15:08:40.740Z,83.82
2022-12-01T15:11:23.828Z,81.00
2022-12-01T15:13:54.078Z,78.15
2022-12-01T15:16:23.804Z,80.97
2022-12-01T15:18:51.935Z,73.85
2022-12-01T15:21:19.630Z,70.60
2022-12-01T15:24:01.593Z,75.38
2022-12-01T15:26:39.406Z,67.47
2022-12-01T15:29:19.374Z,78.38
2022-12-01T15:32:05.905Z,52.20
2022-12-01T15:34:46.548Z,84.43
2022-12-01T15:37:19.063Z,83.35
2022-12-01T15:39:52.647Z,56.17
2022-12-01T15:42:23.381Z,85.43
2022-12-01T15:45:20.926Z,67.82
2022-12-01T15:47:54.483Z,58.35
2022-12-01T15:50:29.654Z,70.38
2022-12-01T15:52:58.369Z,77.45
2022-12-01T15:55:30.561Z,60.13
2022-12-01T15:57:59.154Z,62.53
2022-12-01T16:00:27.020Z,67.93
2022-12-01T16:02:57.600Z,76.40
2022-12-01T16:05:34.126Z,72.32
2022-12-01T16:08:18.288Z,92.57
2022-12-01T16:10:46.287Z,81.90
2022-12-01T16:13:37.813Z,80.78
2022-12-01T16:16:42.385Z,72.15
2022-12-01T16:19:12.144Z,58.85
2022-12-01T16:21:51.571Z,71.93
2022-12-01T16:24:23.175Z,71.50
2022-12-01T16:26:57.733Z,79.18
2022-12-01T16:29:27.272Z,69.93
2022-12-01T16:32:19.420Z,77.38
2022-12-01T16:34:46.585Z,87.75
2022-12-01T16:37:15.648Z,98.05
2022-12-01T16:39:45.228Z,104.53
2022-12-01T16:42:15.293Z,77.97
2022-12-01T16:44:44.756Z,63.10
2022-12-01T16:47:21.162Z,113.45
2022-12-01T16:49:48.237Z,86.05
2022-12-01T16:52:45.990Z,93.45
2022-12-01T16:55:03.296Z,91.38
2022-12-01T16:57:30.314Z,88.78
2022-12-01T16:59:57.432Z,84.85
2022-12-01T17:02:24.477Z,92.72
2022-12-01T17:04:51.847Z,103.28
2022-12-01T17:07:19.301Z,123.53
2022-12-01T17:09:46.519Z,126.50
2022-12-01T17:12:13.517Z,83.00
2022-12-01T17:14:40.492Z,90.68
2022-12-01T17:17:07.540Z,98.47
2022-12-01T17:19:34.623Z,88.22
2022-12-01T17:22:01.713Z,105.10
2022-12-01T17:24:28.719Z,96.43
2022-12-01T17:26:55.645Z,118.45
2022-12-01T17:29:22.841Z,91.85
2022-12-01T17:31:49.830Z,115.75
2022-12-01T17:34:16.876Z,125.53
2022-12-01T17:36:44.096Z,120.22
2022-12-01T17:39:15.015Z,114.35
2022-12-01T17:41:42.371Z,113.65
2022-12-01T17:44:09.538Z,87.72
2022-12-01T17:46:38.632Z,94.82
2022-12-01T17:49:09.546Z,89.80
2022-12-01T17:51:37.209Z,98.65
2022-12-01T17:54:04.866Z,94.88
2022-12-01T17:56:32.370Z,114.32
2022-12-01T17:58:59.550Z,97.57
2022-12-01T18:01:30.218Z,94.57
2022-12-01T18:03:59.013Z,96.43
2022-12-01T18:06:27.141Z,94.22
2022-12-01T18:08:55.150Z,96.68
2022-12-01T18:11:23.095Z,92.63
2022-12-01T18:13:51.427Z,100.35
2022-12-01T18:16:22.160Z,68.47
2022-12-01T18:18:50.101Z,77.32
2022-12-01T18:21:19.317Z,80.32
2022-12-01T18:23:54.357Z,78.82
2022-12-01T18:26:22.455Z,99.68
2022-12-01T18:29:14.178Z,79.55
2022-12-01T18:31:41.522Z,91.72
2022-12-01T18:34:10.389Z,74.75
2022-12-01T18:36:39.811Z,68.70
2022-12-01T18:39:09.256Z,98.05
2022-12-01T18:41:37.156Z,102.88
2022-12-01T18:44:04.951Z,87.40
2022-12-01T18:46:33.161Z,94.03
2022-12-01T18:49:04.788Z,96.20
2022-12-01T18:51:37.110Z,94.25
2022-12-01T18:54:06.248Z,80.45
2022-12-01T18:56:34.176Z,90.22
2022-12-01T18:59:05.281Z,30.00
2022-12-01T19:01:36.976Z,66.38
2022-12-01T19:06:33.954Z,60.88
2022-12-01T19:09:02.833Z,84.88
2022-12-01T19:11:30.272Z,68.25
2022-12-01T19:13:57.510Z,53.25
2022-12-01T19:16:25.506Z,64.53
2022-12-01T19:18:53.599Z,79.57
2022-12-01T19:21:21.140Z,72.75
2022-12-01T19:23:50.795Z,78.10
2022-12-01T19:26:20.366Z,75.07
2022-12-01T19:28:48.541Z,83.40
2022-12-01T19:31:20.094Z,64.43
2022-12-01T19:33:50.432Z,81.13
2022-12-01T19:36:20.127Z,77.82
2022-12-01T19:41:15.460Z,78.53
2022-12-01T19:43:43.462Z,82.88
2022-12-01T19:46:13.553Z,63.72
2022-12-01T19:48:40.685Z,80.43
2022-12-01T19:51:15.307Z,89.25
2022-12-01T19:53:42.422Z,79.00
2022-12-01T19:56:09.664Z,70.22
2022-12-01T19:58:36.695Z,87.40
2022-12-01T20:01:09.301Z,46.60
2022-12-01T20:03:37.886Z,82.03
2022-12-01T20:06:15.041Z,66.72
2022-12-01T20:08:42.534Z,84.95
2022-12-01T20:11:10.216Z,73.72
2022-12-01T20:13:40.093Z,62.70
2022-12-01T20:16:08.729Z,53.10
2022-12-01T20:18:36.636Z,62.67
2022-12-01T20:21:16.020Z,64.25
2022-12-01T20:24:00.920Z,75.75
2022-12-01T20:26:31.543Z,63.20
2022-12-01T20:29:02.976Z,57.20
2022-12-01T20:31:32.500Z,78.00
2022-12-01T20:34:02.815Z,102.78
2022-12-01T20:36:30.063Z,67.72
2022-12-01T20:38:57.093Z,82.03
2022-12-01T20:41:24.194Z,88.70
2022-12-01T20:43:51.418Z,77.05
2022-12-01T20:46:18.393Z,66.78
2022-12-01T20:48:45.396Z,63.03
2022-12-01T20:51:14.013Z,66.05
2022-12-01T20:53:54.505Z,69.30
2022-12-01T20:56:28.738Z,65.90
2022-12-01T20:58:55.891Z,52.00
2022-12-01T21:01:23.528Z,67.40
2022-12-01T21:03:51.350Z,66.60
2022-12-01T21:06:18.797Z,43.58
2022-12-01T21:08:47.528Z,73.15
2022-12-01T21:11:19.496Z,73.03
2022-12-01T21:13:49.530Z,60.88
2022-12-01T21:16:21.345Z,51.63
2022-12-01T21:18:55.624Z,50.45
2022-12-01T21:21:33.502Z,51.20
2022-12-01T21:24:20.152Z,67.60
2022-12-01T21:27:11.225Z,56.00
2022-12-01T21:29:49.120Z,73.20
2022-12-01T21:32:18.636Z,53.55
2022-12-01T21:34:47.818Z,67.38
2022-12-01T21:37:24.080Z,57.60
2022-12-01T21:39:52.502Z,70.75
2022-12-01T21:42:22.024Z,62.00
2022-12-01T21:44:49.661Z,64.50
2022-12-01T21:47:26.422Z,50.80
2022-12-01T21:50:00.061Z,58.60
2022-12-01T21:52:53.755Z,60.10
2022-12-01T21:55:20.643Z,70.07
2022-12-01T21:57:54.408Z,53.85
2022-12-01T22:00:27.363Z,55.15
2022-12-01T22:03:09.558Z,77.18
2022-12-01T22:06:07.167Z,50.88
2022-12-01T22:08:40.214Z,71.70
2022-12-01T22:11:16.299Z,60.28
2022-12-01T22:13:54.648Z,63.13
2022-12-01T22:16:32.890Z,59.63
2022-12-01T22:19:08.652Z,65.57
2022-12-01T22:21:40.985Z,60.17
2022-12-01T22:24:08.192Z,71.07
2022-12-01T22:26:41.797Z,48.88
2022-12-01T22:29:28.141Z,56.97
2022-12-01T22:32:17.834Z,63.55
2022-12-01T22:34:55.416Z,62.83
2022-12-01T22:37:25.124Z,73.32
2022-12-01T22:39:55.447Z,63.92
2022-12-01T22:42:31.199Z,51.78
2022-12-01T22:45:18.407Z,63.55
2022-12-01T22:47:45.375Z,66.82
2022-12-01T22:50:29.529Z,80.10
2022-12-01T22:53:06.400Z,81.50
2022-12-01T22:55:34.258Z,65.63
2022-12-01T22:58:21.440Z,75.47
2022-12-01T23:00:48.510Z,86.43
2022-12-01T23:03:16.507Z,54.05
2022-12-01T23:05:45.462Z,75.10
2022-12-01T23:08:20.081Z,60.80
2022-12-01T23:10:47.078Z,68.68
2022-12-01T23:13:17.158Z,68.15
2022-12-01T23:15:51.682Z,49.55
2022-12-01T23:18:29.920Z,57.08
2022-12-01T23:21:02.148Z,60.95
2022-12-01T23:23:32.255Z,67.15
2022-12-01T23:26:01.662Z,55.90
2022-12-01T23:28:30.313Z,61.92
2022-12-01T23:30:59.914Z,49.72
2022-12-01T23:33:31.077Z,72.80
2022-12-01T23:36:21.924Z,41.40
2022-12-01T23:38:55.844Z,50.38
2022-12-01T23:41:41.017Z,51.45
2022-12-01T23:44:19.042Z,64.80
2022-12-01T23:46:47.943Z,46.28
2022-12-01T23:49:19.628Z,57.97
2022-12-01T23:51:55.100Z,49.28
2022-12-01T23:54:27.304Z,48.83
2022-12-01T23:56:58.310Z,57.95
2022-12-01T23:59:25.880Z,66.32
